Time;durP1;ratioP1;P1;durP2;ratioP2;P2;SDS_P1;SDS_P2;PMS_P1;PMS_P2;Temp;Humidity;BMP_temperature;BMP_pressure;BME280_temperature;BME280_humidity;BME280_pressure;Samples;Min_cycle;Max_cycle;Signal;HPM_P1;HPM_P2
2022/05/01 00:01:11;;;;;;;10.23;9.05;;;;;;;16.65;42.92;93544.69;5029414;28;20033;-81
2022/05/01 00:03:39;;;;;;;12.00;9.70;;;;;;;16.65;43.05;93542.72;5014418;28;20094;-81
2022/05/01 00:06:07;;;;;;;10.90;9.18;;;;;;;16.64;42.74;93545.94;5051930;28;20032;-81
2022/05/01 00:08:32;;;;;;;12.07;9.52;;;;;;;16.64;43.01;93541.22;5050246;28;20036;-82
2022/05/01 00:10:58;;;;;;;13.60;11.02;;;;;;;16.64;42.58;93538.50;5066410;28;20067;-83
2022/05/01 00:13:23;;;;;;;11.77;10.30;;;;;;;16.66;43.07;93540.72;5012029;28;20030;-82
2022/05/01 00:15:49;;;;;;;11.27;8.88;;;;;;;16.64;43.03;93541.22;5010736;28;20504;-82
2022/05/01 00:18:14;;;;;;;12.10;9.30;;;;;;;16.64;42.90;93524.84;5032121;28;20577;-82
2022/05/01 00:20:40;;;;;;;13.00;10.20;;;;;;;16.63;43.16;93537.00;5048997;28;20024;-82
2022/05/01 00:23:05;;;;;;;11.45;9.73;;;;;;;16.64;42.88;93543.22;5046695;28;20036;-82
2022/05/01 00:25:31;;;;;;;11.52;10.23;;;;;;;16.64;43.07;93543.22;5046714;28;20041;-82
2022/05/01 00:27:57;;;;;;;11.02;9.90;;;;;;;16.63;42.70;93545.19;5029465;28;20040;-82
2022/05/01 00:30:22;;;;;;;11.85;9.35;;;;;;;16.65;43.26;93541.97;5052812;28;20039;-81
2022/05/01 00:38:16;;;;;;;12.73;9.15;;;;;;;16.63;43.42;93542.47;5028297;28;20072;-82
2022/05/01 00:40:41;;;;;;;10.15;9.05;;;;;;;16.63;43.03;93542.47;5027813;28;20030;-82
2022/05/01 00:43:06;;;;;;;10.98;9.02;;;;;;;16.61;42.91;93536.72;5050900;28;20384;-82
2022/05/01 00:45:32;;;;;;;10.43;8.57;;;;;;;16.62;42.94;93540.94;5033209;28;20543;-82
2022/05/01 00:47:57;;;;;;;11.45;8.85;;;;;;;16.62;43.56;93532.75;5032485;28;20155;-82
2022/05/01 00:50:23;;;;;;;11.35;9.23;;;;;;;16.63;43.04;93542.47;5049186;28;20082;-82
2022/05/01 00:52:49;;;;;;;9.90;8.63;;;;;;;16.60;43.12;93540.69;5033128;28;20139;-82
2022/05/01 00:55:14;;;;;;;11.32;10.13;;;;;;;16.62;43.37;93545.66;5019795;28;20041;-82
2022/05/01 00:57:40;;;;;;;13.18;9.77;;;;;;;16.62;43.22;93542.94;5033578;28;20036;-81
2022/05/01 01:00:06;;;;;;;11.07;9.65;;;;;;;16.62;43.13;93540.19;5049240;28;20045;-81
2022/05/01 01:02:31;;;;;;;11.43;9.52;;;;;;;16.61;43.45;93535.97;5033305;28;20033;-82
2022/05/01 01:04:57;;;;;;;9.73;8.30;;;;;;;16.61;43.08;93542.19;5016972;28;20040;-82
2022/05/01 01:07:25;;;;;;;13.02;9.95;;;;;;;16.61;43.55;93546.91;5046284;28;20143;-82
2022/05/01 01:09:50;;;;;;;10.55;9.00;;;;;;;16.61;43.28;93546.91;5053160;28;20033;-82
2022/05/01 01:15:08;;;;;;;10.43;9.20;;;;;;;16.62;43.28;93540.19;5050010;28;20043;-82
2022/05/01 01:17:36;;;;;;;11.02;8.68;;;;;;;16.61;43.67;93546.91;5053170;28;20396;-82
2022/05/01 01:20:07;;;;;;;10.32;9.13;;;;;;;16.61;43.49;93544.91;5051065;28;20193;-82
2022/05/01 01:22:32;;;;;;;11.70;9.35;;;;;;;16.61;43.31;93533.25;5016998;28;20037;-82
2022/05/01 01:24:57;;;;;;;10.38;9.30;;;;;;;16.60;43.62;93532.50;5013978;28;20045;-82
2022/05/01 01:27:23;;;;;;;11.40;9.32;;;;;;;16.61;43.71;93530.50;5012741;28;20396;-83
2022/05/01 01:32:33;;;;;;;12.10;9.80;;;;;;;16.58;43.58;93532.25;5015953;28;20084;-82
2022/05/01 01:34:59;;;;;;;10.10;8.57;;;;;;;16.59;43.78;93525.56;5046530;28;20043;-82
2022/05/01 01:37:24;;;;;;;9.98;8.20;;;;;;;16.59;43.72;93536.47;5039825;28;20037;-81
2022/05/01 01:39:49;;;;;;;12.10;8.85;;;;;;;16.58;43.56;93526.78;5069113;28;20032;-82
2022/05/01 01:42:15;;;;;;;10.02;8.65;;;;;;;16.60;43.51;93529.03;5070319;28;20036;-82
2022/05/01 01:44:40;;;;;;;12.15;9.88;;;;;;;16.59;43.56;93538.47;5052978;28;20036;-81
2022/05/01 01:47:06;;;;;;;10.43;8.85;;;;;;;16.59;43.81;93533.75;5069240;28;20037;-81
2022/05/01 01:49:31;;;;;;;11.38;9.40;;;;;;;16.59;43.38;93522.81;5068749;28;20119;-82
2022/05/01 01:51:57;;;;;;;10.45;8.63;;;;;;;16.59;43.89;93525.56;5052513;28;20037;-82
2022/05/01 01:54:22;;;;;;;10.80;9.15;;;;;;;16.59;43.36;93530.25;5034769;28;20063;-82
2022/05/01 01:56:48;;;;;;;12.10;9.30;;;;;;;16.58;43.36;93526.78;5070649;28;20503;-82
2022/05/01 01:59:13;;;;;;;9.77;8.75;;;;;;;16.58;42.97;93526.03;5051337;28;20052;-82
2022/05/01 02:01:42;;;;;;;10.68;8.80;;;;;;;16.58;43.90;93529.53;5060344;28;20118;-82
2022/05/01 02:04:08;;;;;;;10.88;9.07;;;;;;;16.57;43.84;93528.03;5032151;28;20484;-82
2022/05/01 02:06:33;;;;;;;12.43;10.38;;;;;;;16.58;43.66;93528.78;5052270;28;20044;-82
2022/05/01 02:09:06;;;;;;;11.25;9.57;;;;;;;16.57;43.76;93533.50;5050593;28;20044;-82
2022/05/01 02:11:32;;;;;;;10.68;9.10;;;;;;;16.57;43.71;93528.03;5066926;28;20036;-82
2022/05/01 02:13:57;;;;;;;10.63;9.30;;;;;;;16.58;43.63;93531.50;5032277;28;20120;-82
2022/05/01 02:16:23;;;;;;;10.18;8.82;;;;;;;16.58;43.75;93531.50;5031965;28;20045;-81
2022/05/01 02:18:48;;;;;;;10.32;8.38;;;;;;;16.58;43.75;93540.44;5051639;28;20036;-82
2022/05/01 02:23:58;;;;;;;12.65;9.30;;;;;;;16.57;43.33;93528.03;5035078;28;20048;-81
2022/05/01 02:26:23;;;;;;;10.30;9.20;;;;;;;16.57;43.45;93525.31;5048767;28;20081;-82
2022/05/01 02:28:48;;;;;;;12.40;9.02;;;;;;;16.56;43.86;93537.47;5048295;28;20033;-82
2022/05/01 02:31:14;;;;;;;11.82;9.18;;;;;;;16.54;44.01;93539.94;5033930;28;20143;-81
2022/05/01 02:33:39;;;;;;;11.77;9.70;;;;;;;16.56;43.63;93542.91;5052102;28;20040;-82
2022/05/01 02:36:07;;;;;;;11.95;9.65;;;;;;;16.56;43.73;93529.28;5035344;28;20051;-82
2022/05/01 02:38:34;;;;;;;11.18;9.43;;;;;;;16.56;43.84;93534.72;5049093;28;20029;-82
2022/05/01 02:41:00;;;;;;;10.45;8.98;;;;;;;16.54;43.83;93533.72;5015299;28;20043;-82
2022/05/01 02:43:26;;;;;;;11.30;9.77;;;;;;;16.56;43.54;93525.78;5039994;28;20529;-82
2022/05/01 02:45:52;;;;;;;11.25;9.52;;;;;;;16.56;43.88;93531.25;5068766;28;20114;-81
2022/05/01 02:48:17;;;;;;;9.35;8.13;;;;;;;16.56;44.06;93544.91;5051139;28;20438;-82
2022/05/01 02:50:43;;;;;;;13.60;9.20;;;;;;;16.56;43.50;93533.97;5051019;28;20492;-81
2022/05/01 02:53:08;;;;;;;12.48;9.98;;;;;;;16.56;43.65;93529.28;5051162;28;20056;-81
2022/05/01 02:55:34;;;;;;;10.55;8.90;;;;;;;16.56;43.18;93532.00;5067957;28;20560;-81
2022/05/01 02:57:59;;;;;;;11.07;9.35;;;;;;;16.57;44.10;93538.19;5051308;28;20048;-82
2022/05/01 03:00:25;;;;;;;11.93;9.43;;;;;;;16.56;43.99;93529.28;5066998;28;20040;-82
2022/05/01 03:02:50;;;;;;;11.95;10.23;;;;;;;16.55;43.92;93529.75;5067970;28;20464;-82
2022/05/01 03:05:16;;;;;;;13.15;9.45;;;;;;;16.57;43.94;93538.19;5051104;28;20037;-81
2022/05/01 03:07:41;;;;;;;12.27;10.43;;;;;;;16.57;44.00;93530.00;5051105;28;20040;-82
2022/05/01 03:10:08;;;;;;;11.90;9.93;;;;;;;16.54;43.80;93531.75;5050459;28;20068;-82
2022/05/01 03:12:34;;;;;;;11.38;9.43;;;;;;;16.55;43.18;93535.97;5039695;28;20037;-82
2022/05/01 03:14:59;;;;;;;11.38;9.43;;;;;;;16.55;43.64;93535.97;5031331;28;20044;-82
2022/05/01 03:17:25;;;;;;;12.45;10.32;;;;;;;16.54;43.67;93539.94;5037364;28;20033;-82
2022/05/01 03:22:34;;;;;;;11.27;9.30;;;;;;;16.55;44.00;93540.69;5036967;28;20090;-82
2022/05/01 03:24:59;;;;;;;12.60;10.35;;;;;;;16.55;43.65;93538.69;5049210;28;20049;-82
2022/05/01 03:27:25;;;;;;;11.85;10.23;;;;;;;16.53;43.62;93532.97;5031147;28;20048;-81
2022/05/01 03:32:35;;;;;;;11.60;9.45;;;;;;;16.53;43.86;93530.25;5062179;28;20110;-81
2022/05/01 03:35:01;;;;;;;11.57;10.38;;;;;;;16.52;44.00;93538.94;5034484;28;20029;-82
2022/05/01 03:37:28;;;;;;;10.57;9.45;;;;;;;16.54;43.96;93541.91;5054796;28;20033;-82
2022/05/01 03:39:53;;;;;;;12.23;10.07;;;;;;;16.52;44.10;93545.13;5047552;28;20492;-82
2022/05/01 03:42:19;;;;;;;11.70;9.77;;;;;;;16.54;43.67;93539.19;5030046;28;20025;-82
2022/05/01 03:44:45;;;;;;;10.93;9.45;;;;;;;16.53;44.21;93534.97;5046962;28;20029;-81
2022/05/01 03:47:10;;;;;;;10.98;9.88;;;;;;;16.52;44.15;93536.94;5050312;28;20055;-82
2022/05/01 03:49:35;;;;;;;10.45;9.35;;;;;;;16.52;44.13;93536.94;5050314;28;20577;-82
2022/05/01 03:52:01;;;;;;;10.73;9.63;;;;;;;16.51;43.84;93540.19;5050109;28;20041;-82
2022/05/01 03:54:26;;;;;;;12.60;10.18;;;;;;;16.53;43.89;93538.44;5050048;28;20110;-82
2022/05/01 03:56:53;;;;;;;11.57;9.70;;;;;;;16.53;43.80;93543.91;5031123;28;20078;-82
2022/05/01 03:59:18;;;;;;;12.70;9.65;;;;;;;16.51;44.01;93538.19;5050217;28;20534;-82
2022/05/01 04:01:44;;;;;;;10.75;9.35;;;;;;;16.51;44.10;93540.91;5049654;28;20033;-82
2022/05/01 04:04:09;;;;;;;9.95;8.68;;;;;;;16.50;43.73;93539.44;5049757;28;20033;-82
2022/05/01 04:06:35;;;;;;;11.27;9.15;;;;;;;16.50;44.01;93542.16;5067233;28;20105;-82
2022/05/01 04:09:00;;;;;;;11.80;9.43;;;;;;;16.50;44.01;93547.63;5067736;28;20117;-82
2022/05/01 04:11:26;;;;;;;10.43;9.07;;;;;;;16.51;44.09;93551.84;5080528;28;20044;-82
2022/05/01 04:13:51;;;;;;;10.70;8.95;;;;;;;16.52;44.26;93549.84;5030579;28;20051;-82
2022/05/01 04:16:17;;;;;;;11.13;9.30;;;;;;;16.50;44.20;93550.34;5029753;28;20041;-82
2022/05/01 04:18:42;;;;;;;12.55;8.65;;;;;;;16.50;44.47;93555.06;5061432;28;20040;-82
2022/05/01 04:21:07;;;;;;;11.18;8.90;;;;;;;16.51;44.27;93554.56;5041232;28;20034;-83
2022/05/01 04:23:33;;;;;;;10.10;8.93;;;;;;;16.51;44.20;93562.75;5026627;28;20441;-82
2022/05/01 04:25:58;;;;;;;12.30;9.57;;;;;;;16.49;43.98;93562.50;5026618;28;20512;-82
2022/05/01 04:28:24;;;;;;;9.93;8.93;;;;;;;16.50;44.10;93561.25;5010399;28;20424;-83
2022/05/01 04:30:50;;;;;;;11.02;9.25;;;;;;;16.52;43.82;93569.69;5025696;28;20043;-82
2022/05/01 04:33:16;;;;;;;11.73;9.55;;;;;;;16.52;43.88;93558.78;5049166;28;20216;-82
2022/05/01 04:35:49;;;;;;;11.10;9.38;;;;;;;16.51;44.23;93564.72;5066644;28;20033;-83
2022/05/01 04:38:19;;;;;;;10.80;9.70;;;;;;;16.49;44.16;93567.97;5032360;28;20041;-82
2022/05/01 04:40:47;;;;;;;10.07;9.00;;;;;;;16.51;44.15;93567.47;5046318;28;20052;-82
2022/05/01 04:43:18;;;;;;;10.95;8.90;;;;;;;16.49;44.22;93575.41;5046170;28;20037;-82
2022/05/01 04:45:46;;;;;;;11.32;9.15;;;;;;;16.51;44.22;93567.47;5050294;28;20037;-85
2022/05/01 04:48:12;;;;;;;11.63;9.88;;;;;;;16.50;43.84;93576.88;5049852;28;20029;-82
2022/05/01 04:50:37;;;;;;;11.63;9.32;;;;;;;16.51;44.22;93576.41;5049409;28;20067;-82
2022/05/01 04:53:03;;;;;;;10.55;9.07;;;;;;;16.50;44.43;93574.16;5032528;28;20094;-82
2022/05/01 04:55:29;;;;;;;10.25;8.88;;;;;;;16.49;43.89;93573.41;5048746;28;20521;-82
2022/05/01 04:57:55;;;;;;;10.27;8.77;;;;;;;16.49;44.21;93576.13;5049656;28;20068;-82
2022/05/01 05:00:20;;;;;;;10.50;9.25;;;;;;;16.51;44.34;93578.38;5048736;28;20487;-82
2022/05/01 05:02:48;;;;;;;11.80;9.27;;;;;;;16.49;43.92;93575.41;5049099;28;20040;-82
2022/05/01 05:05:14;;;;;;;10.75;9.48;;;;;;;16.48;44.16;93574.66;5048989;28;20040;-82
2022/05/01 05:07:39;;;;;;;10.65;8.88;;;;;;;16.50;43.80;93572.19;5049487;28;20036;-82
2022/05/01 05:10:06;;;;;;;10.27;9.15;;;;;;;16.50;44.15;93571.44;5049160;28;20036;-81
2022/05/01 05:12:32;;;;;;;11.52;9.73;;;;;;;16.48;43.96;93566.47;5037975;28;20045;-82
2022/05/01 05:15:00;;;;;;;11.27;9.52;;;;;;;16.49;43.78;93578.88;5046309;28;20051;-82
2022/05/01 05:17:25;;;;;;;11.35;9.88;;;;;;;16.49;44.22;93581.59;5015111;28;20040;-82
2022/05/01 05:19:51;;;;;;;13.93;10.57;;;;;;;16.50;44.30;93579.63;5049220;28;20029;-81
2022/05/01 05:22:16;;;;;;;12.52;10.75;;;;;;;16.49;44.15;93572.66;5051248;28;20067;-81
2022/05/01 05:24:42;;;;;;;15.18;11.98;;;;;;;16.47;44.22;93573.16;5046071;28;20040;-82
2022/05/01 05:27:08;;;;;;;11.98;10.65;;;;;;;16.50;44.15;93576.88;5029260;28;20040;-81
2022/05/01 05:29:33;;;;;;;12.18;9.70;;;;;;;16.51;44.20;93570.94;5029268;28;20056;-82
2022/05/01 05:31:59;;;;;;;10.93;9.75;;;;;;;16.50;44.02;93572.19;5033288;28;20045;-82
2022/05/01 05:34:25;;;;;;;13.43;9.85;;;;;;;16.49;44.07;93578.13;5032604;28;20043;-81
2022/05/01 05:36:51;;;;;;;11.82;9.70;;;;;;;16.48;43.85;93577.38;5060157;28;20033;-82
2022/05/01 05:39:17;;;;;;;11.63;10.43;;;;;;;16.48;44.01;93587.53;5045484;28;20029;-82
2022/05/01 05:41:42;;;;;;;11.15;8.90;;;;;;;16.48;43.92;93585.56;5013100;28;20056;-82
2022/05/01 05:44:08;;;;;;;11.32;9.65;;;;;;;16.50;44.08;93593.25;5037397;28;20036;-82
2022/05/01 05:46:33;;;;;;;11.95;10.13;;;;;;;16.49;44.07;93592.50;5070041;28;20029;-82
2022/05/01 05:48:59;;;;;;;11.63;10.05;;;;;;;16.51;43.94;93594.75;5052925;28;20067;-82
2022/05/01 05:51:24;;;;;;;10.88;9.63;;;;;;;16.50;44.18;93591.28;5052217;28;20032;-81
2022/05/01 05:53:50;;;;;;;9.75;8.32;;;;;;;16.49;44.32;93592.50;5018226;28;20041;-81
2022/05/01 05:56:16;;;;;;;10.60;8.98;;;;;;;16.49;44.24;93589.78;5031667;28;20496;-81
2022/05/01 05:58:41;;;;;;;12.00;9.60;;;;;;;16.51;43.78;93592.03;5053310;28;20142;-82
2022/05/01 06:01:08;;;;;;;11.27;9.63;;;;;;;16.50;43.94;93593.25;5068568;28;20055;-82
2022/05/01 06:03:33;;;;;;;10.18;9.15;;;;;;;16.51;44.36;93597.47;5052249;28;20483;-82
2022/05/01 06:05:59;;;;;;;12.00;10.15;;;;;;;16.52;44.06;93596.25;5069292;28;20044;-82
2022/05/01 06:08:24;;;;;;;11.60;9.85;;;;;;;16.50;44.38;93599.47;5035286;28;20064;-81
2022/05/01 06:10:50;;;;;;;9.48;8.45;;;;;;;16.51;44.12;93595.50;5052169;28;20495;-82
2022/05/01 06:13:15;;;;;;;12.73;9.35;;;;;;;16.53;43.82;93600.47;5031050;28;20033;-82
2022/05/01 06:15:43;;;;;;;12.32;9.30;;;;;;;16.52;43.89;93605.19;5029068;28;20042;-81
2022/05/01 06:18:10;;;;;;;10.95;9.13;;;;;;;16.51;44.23;93598.22;5024673;28;20563;-82
2022/05/01 06:20:36;;;;;;;10.40;9.18;;;;;;;16.53;43.81;93600.47;5068433;28;20032;-81
2022/05/01 06:23:01;;;;;;;12.52;10.45;;;;;;;16.52;43.76;93602.44;5032152;28;20088;-81
2022/05/01 06:25:26;;;;;;;13.15;9.90;;;;;;;16.52;44.26;93604.44;5015233;28;20041;-82
2022/05/01 06:27:52;;;;;;;11.70;9.23;;;;;;;16.52;44.00;93607.16;5032141;28;20053;-82
2022/05/01 06:30:17;;;;;;;9.95;8.93;;;;;;;16.51;44.15;93603.69;5048120;28;20094;-82
2022/05/01 06:32:43;;;;;;;11.32;9.85;;;;;;;16.52;43.83;93607.16;5039097;28;20037;-82
2022/05/01 06:35:08;;;;;;;9.57;8.32;;;;;;;16.52;43.77;93604.44;5051581;28;20055;-82
2022/05/01 06:37:35;;;;;;;11.02;9.32;;;;;;;16.50;43.82;93602.19;5040218;28;20068;-82
2022/05/01 06:40:01;;;;;;;11.20;10.05;;;;;;;16.53;44.13;93603.19;5015615;28;20037;-82
2022/05/01 06:42:26;;;;;;;9.68;8.48;;;;;;;16.51;43.81;93598.22;5015046;28;20040;-82
2022/05/01 06:44:51;;;;;;;9.68;8.40;;;;;;;16.52;44.07;93599.72;5039293;28;20437;-81
2022/05/01 06:47:17;;;;;;;10.90;8.55;;;;;;;16.53;44.29;93595.00;5051403;28;20044;-82
2022/05/01 06:49:42;;;;;;;10.27;8.52;;;;;;;16.53;43.96;93600.47;5068002;28;20040;-82
2022/05/01 06:52:08;;;;;;;10.73;8.60;;;;;;;16.53;43.82;93600.47;5067813;28;20033;-82
2022/05/01 06:54:33;;;;;;;12.15;8.95;;;;;;;16.53;44.14;93605.91;5033832;28;20035;-84
2022/05/01 06:56:59;;;;;;;10.15;9.02;;;;;;;16.53;44.23;93601.22;5051477;28;20043;-82
2022/05/01 06:59:24;;;;;;;10.63;9.32;;;;;;;16.54;44.27;93607.41;5050917;28;20059;-82
2022/05/01 07:01:50;;;;;;;9.88;8.05;;;;;;;16.53;44.13;93614.84;5051474;28;20422;-83
2022/05/01 07:04:15;;;;;;;10.65;8.80;;;;;;;16.53;44.15;93617.59;5050449;28;20449;-82
2022/05/01 07:06:41;;;;;;;10.50;8.93;;;;;;;16.54;44.35;93615.59;5034551;28;20040;-81
2022/05/01 07:09:06;;;;;;;11.88;9.63;;;;;;;16.54;44.04;93618.31;5068838;28;20037;-82
2022/05/01 07:11:32;;;;;;;10.13;8.85;;;;;;;16.53;44.16;93620.31;5048706;28;20454;-82
2022/05/01 07:13:57;;;;;;;10.88;9.10;;;;;;;16.56;43.99;93618.59;5031093;28;20393;-82
2022/05/01 07:16:23;;;;;;;9.40;7.78;;;;;;;16.54;44.01;93616.34;5047452;28;20036;-81
2022/05/01 07:18:48;;;;;;;10.75;8.18;;;;;;;16.54;44.33;93621.81;5039619;28;20029;-82
2022/05/01 07:21:14;;;;;;;10.27;9.20;;;;;;;16.54;44.11;93610.88;5041756;28;20037;-82
2022/05/01 07:23:39;;;;;;;9.98;8.50;;;;;;;16.55;44.38;93615.09;5011276;28;20041;-82
2022/05/01 07:26:05;;;;;;;11.00;8.48;;;;;;;16.55;43.75;93615.09;5027286;28;20059;-82
2022/05/01 07:28:32;;;;;;;10.60;9.50;;;;;;;16.57;43.88;93628.25;5027705;28;20037;-82
2022/05/01 07:30:58;;;;;;;9.95;8.45;;;;;;;16.55;43.92;93625.28;5027663;28;20037;-82
2022/05/01 07:33:23;;;;;;;12.05;8.90;;;;;;;16.56;44.25;93611.13;5030055;28;20222;-81
2022/05/01 07:35:49;;;;;;;10.35;8.13;;;;;;;16.55;44.17;93630.72;5050520;28;20093;-81
2022/05/01 07:38:14;;;;;;;11.18;8.73;;;;;;;16.55;43.93;93626.03;5046693;28;20044;-81
2022/05/01 07:40:40;;;;;;;10.48;8.20;;;;;;;16.55;44.17;93626.03;5030682;28;20040;-83
2022/05/01 07:43:05;;;;;;;10.82;9.00;;;;;;;16.56;43.94;93624.78;5014113;28;20040;-83
2022/05/01 07:45:30;;;;;;;10.50;8.98;;;;;;;16.57;43.94;93628.25;5023445;28;20043;-83
2022/05/01 07:47:58;;;;;;;10.77;8.32;;;;;;;16.56;44.00;93616.59;5050767;28;20477;-82
2022/05/01 07:50:24;;;;;;;10.00;8.20;;;;;;;16.57;44.36;93614.63;5050635;28;20032;-81
2022/05/01 07:52:49;;;;;;;9.27;7.78;;;;;;;16.58;44.50;93621.56;5067032;28;20039;-82
2022/05/01 07:55:15;;;;;;;10.40;8.95;;;;;;;16.58;43.97;93613.38;5066341;28;20040;-82
2022/05/01 07:57:41;;;;;;;11.40;9.40;;;;;;;16.57;44.26;93617.34;5055569;28;20044;-82
2022/05/01 08:00:07;;;;;;;11.88;9.68;;;;;;;16.58;44.15;93616.84;5046614;28;20079;-83
2022/05/01 08:02:35;;;;;;;11.05;8.82;;;;;;;16.57;44.45;93607.19;5030189;28;20112;-81
2022/05/01 08:05:00;;;;;;;10.73;8.85;;;;;;;16.57;44.21;93603.69;5014070;28;20040;-82
2022/05/01 08:07:26;;;;;;;10.30;9.00;;;;;;;16.59;44.10;93601.22;5029314;28;20041;-82
2022/05/01 08:09:51;;;;;;;10.90;9.00;;;;;;;16.57;44.06;93612.63;5058553;28;20028;-82
2022/05/01 08:12:16;;;;;;;11.05;9.10;;;;;;;16.59;44.43;93612.88;5058552;28;20044;-82
2022/05/01 08:14:44;;;;;;;10.43;9.32;;;;;;;16.59;44.12;93612.88;5013402;28;20040;-82
2022/05/01 08:17:10;;;;;;;10.35;8.13;;;;;;;16.58;44.10;93619.59;5030142;28;20048;-81
2022/05/01 08:22:19;;;;;;;10.20;9.10;;;;;;;16.59;44.12;93621.06;5031597;28;20048;-82
2022/05/01 08:24:45;;;;;;;11.13;8.18;;;;;;;16.59;44.17;93625.78;5010272;28;20034;-82
2022/05/01 08:27:10;;;;;;;11.68;9.45;;;;;;;16.59;44.05;93625.78;5010041;28;20033;-81
2022/05/01 08:29:38;;;;;;;10.40;8.90;;;;;;;16.61;43.75;93624.06;5026062;28;20038;-82
2022/05/01 08:32:04;;;;;;;14.65;8.45;;;;;;;16.60;43.64;93619.09;5026300;28;20030;-81
2022/05/01 08:34:30;;;;;;;13.35;8.57;;;;;;;16.60;43.79;93619.09;5041886;28;20039;-82
2022/05/01 08:36:55;;;;;;;11.98;8.60;;;;;;;16.61;43.83;93618.59;5042743;28;20037;-83
2022/05/01 08:39:21;;;;;;;9.93;8.05;;;;;;;16.61;44.05;93623.31;5028990;28;20569;-82
2022/05/01 08:41:46;;;;;;;17.50;9.05;;;;;;;16.63;43.56;93629.81;5046747;28;20399;-81
2022/05/01 08:44:13;;;;;;;11.02;8.45;;;;;;;16.61;43.88;93629.50;5029563;28;20033;-82
2022/05/01 08:46:52;;;;;;;15.50;9.35;;;;;;;16.60;44.24;93619.84;5045667;28;20027;-83
2022/05/01 08:49:18;;;;;;;12.30;9.20;;;;;;;16.62;44.09;93622.81;5065606;28;20208;-81
2022/05/01 08:51:43;;;;;;;13.32;8.85;;;;;;;16.62;43.73;93625.56;5049962;28;20028;-81
2022/05/01 08:54:10;;;;;;;13.55;9.57;;;;;;;16.61;44.03;93626.78;5065963;28;20040;-82
2022/05/01 08:56:36;;;;;;;11.77;9.13;;;;;;;16.62;43.66;93617.38;5043456;28;20452;-84
2022/05/01 08:59:04;;;;;;;11.90;9.15;;;;;;;16.61;43.98;93624.06;5048213;28;20094;-81
2022/05/01 09:01:30;;;;;;;10.82;9.18;;;;;;;16.62;44.02;93628.28;5049413;28;20040;-82
2022/05/01 09:03:56;;;;;;;9.63;8.48;;;;;;;16.62;44.30;93625.56;5049757;28;20033;-83
2022/05/01 09:06:21;;;;;;;11.80;9.18;;;;;;;16.64;44.22;93616.91;5048489;28;20101;-82
2022/05/01 09:08:48;;;;;;;11.15;8.90;;;;;;;16.63;43.61;93613.41;5049204;28;20044;-83
2022/05/01 09:13:58;;;;;;;11.05;8.85;;;;;;;16.65;43.78;93627.31;5046368;28;20048;-82
2022/05/01 09:16:23;;;;;;;9.15;8.18;;;;;;;16.64;43.70;93614.16;5028681;28;20494;-81
2022/05/01 09:18:49;;;;;;;11.63;8.57;;;;;;;16.65;43.69;93613.69;5037977;28;20645;-81
2022/05/01 09:21:14;;;;;;;11.65;9.43;;;;;;;16.64;43.95;93617.66;5049992;28;20872;-82
2022/05/01 09:23:47;;;;;;;11.10;9.32;;;;;;;16.66;43.94;93617.91;5053867;28;20032;-82
2022/05/01 09:26:15;;;;;;;11.23;8.65;;;;;;;16.65;43.68;93615.66;5052802;28;20178;-82
2022/05/01 09:28:48;;;;;;;12.18;9.30;;;;;;;16.67;43.78;93610.47;5052918;28;20029;-82
2022/05/01 09:31:13;;;;;;;11.25;8.52;;;;;;;16.68;43.99;93611.91;5069189;28;20039;-82
2022/05/01 09:33:39;;;;;;;12.18;9.27;;;;;;;16.68;43.96;93618.13;5036098;28;20037;-82
2022/05/01 09:36:05;;;;;;;15.40;8.95;;;;;;;16.68;43.66;93609.19;5069243;28;20041;-82
2022/05/01 09:38:30;;;;;;;13.10;8.40;;;;;;;16.67;44.01;93616.63;5030216;28;20056;-82
2022/05/01 09:41:00;;;;;;;10.40;8.30;;;;;;;16.71;43.65;93617.13;5029575;28;20041;-83
2022/05/01 09:43:42;;;;;;;10.57;7.82;;;;;;;16.71;43.85;93616.41;5013668;28;20048;-82
2022/05/01 09:46:24;;;;;;;11.20;9.13;;;;;;;16.71;43.76;93614.41;5014781;28;20041;-82
2022/05/01 09:49:08;;;;;;;11.45;9.10;;;;;;;16.72;43.69;93618.63;5052729;28;20033;-82
2022/05/01 09:51:34;;;;;;;10.07;8.68;;;;;;;16.71;43.71;93611.69;5037276;28;20082;-82
2022/05/01 09:54:02;;;;;;;10.82;8.68;;;;;;;16.72;43.75;93615.16;5053243;28;20029;-81
2022/05/01 09:56:28;;;;;;;10.98;9.35;;;;;;;16.71;43.44;93610.94;5049738;28;20123;-82
2022/05/01 09:59:00;;;;;;;11.07;8.93;;;;;;;16.71;43.49;93608.94;5046677;28;20101;-82
2022/05/01 10:01:26;;;;;;;12.05;8.68;;;;;;;16.72;43.96;93615.91;5051977;28;20036;-82
2022/05/01 10:03:52;;;;;;;10.48;8.30;;;;;;;16.73;43.71;93619.38;5052658;28;20072;-82
2022/05/01 10:06:18;;;;;;;11.90;8.48;;;;;;;16.73;43.23;93611.94;5035549;28;20509;-82
2022/05/01 10:08:44;;;;;;;11.00;9.13;;;;;;;16.74;43.56;93612.69;5035640;28;20056;-83
2022/05/01 10:11:14;;;;;;;10.52;8.18;;;;;;;16.75;43.49;93616.91;5051448;28;20410;-82
2022/05/01 10:13:39;;;;;;;10.05;8.23;;;;;;;16.75;43.62;93616.91;5013506;28;20116;-82
2022/05/01 10:16:07;;;;;;;10.75;8.45;;;;;;;16.76;43.58;93619.13;5042428;28;20120;-82
2022/05/01 10:18:33;;;;;;;11.07;8.70;;;;;;;16.79;43.40;93606.47;5052257;28;20033;-81
2022/05/01 10:20:58;;;;;;;9.30;8.00;;;;;;;16.77;43.47;93606.22;5048731;28;20040;-82
2022/05/01 10:23:24;;;;;;;10.65;8.60;;;;;;;16.81;43.33;93606.75;5049180;28;20024;-82
2022/05/01 10:25:55;;;;;;;10.88;8.57;;;;;;;16.77;43.34;93598.78;5052643;28;20040;-82
2022/05/01 10:28:41;;;;;;;10.90;8.32;;;;;;;16.77;43.28;93609.72;5050814;28;20147;-83
2022/05/01 10:34:21;;;;;;;10.25;8.52;;;;;;;16.79;43.22;93599.03;5070071;28;20048;-82
2022/05/01 10:36:46;;;;;;;10.73;8.15;;;;;;;16.80;43.50;93591.59;5064078;28;20174;-82
2022/05/01 10:39:14;;;;;;;9.40;8.40;;;;;;;16.82;43.56;93602.03;5049371;28;20128;-82
2022/05/01 10:41:43;;;;;;;10.32;7.65;;;;;;;16.79;43.55;93596.31;5064652;28;20029;-82
2022/05/01 10:44:26;;;;;;;10.43;8.05;;;;;;;16.81;43.25;93600.53;5015506;28;20037;-82
2022/05/01 10:46:52;;;;;;;11.20;8.55;;;;;;;16.82;43.34;93596.56;5045626;28;20388;-84
2022/05/01 10:49:34;;;;;;;11.25;8.32;;;;;;;16.82;43.62;93591.84;5067549;28;20253;-81
2022/05/01 10:52:20;;;;;;;10.95;7.80;;;;;;;16.84;43.24;93594.09;5068291;28;20086;-83
2022/05/01 10:54:54;;;;;;;9.55;8.20;;;;;;;16.85;43.16;93584.66;5051756;28;20059;-81
2022/05/01 10:57:20;;;;;;;13.20;8.68;;;;;;;16.83;43.38;93590.59;5043588;28;20029;-82
2022/05/01 10:59:46;;;;;;;9.63;8.52;;;;;;;16.83;43.40;93584.41;5066058;28;20399;-83
2022/05/01 11:02:36;;;;;;;9.32;7.75;;;;;;;16.85;44.43;93587.38;5050785;28;20043;-82
2022/05/01 11:05:02;;;;;;;11.82;7.68;;;;;;;16.83;43.99;93576.97;5051834;28;20503;-83
2022/05/01 11:07:28;;;;;;;9.90;8.45;;;;;;;16.83;43.96;93587.13;5050934;28;20039;-82
2022/05/01 11:09:54;;;;;;;9.95;8.32;;;;;;;16.84;43.34;93578.44;5049732;28;20454;-83
2022/05/01 11:12:22;;;;;;;10.75;7.55;;;;;;;16.84;43.52;93575.72;5024981;28;20037;-82
2022/05/01 11:14:51;;;;;;;8.85;7.50;;;;;;;16.85;43.25;93569.00;5032111;28;20068;-82
2022/05/01 11:17:28;;;;;;;11.23;8.02;;;;;;;16.84;43.71;93581.19;5047521;28;20415;-81
2022/05/01 11:19:53;;;;;;;10.07;8.32;;;;;;;16.85;43.57;93576.47;5056943;28;20075;-81
2022/05/01 11:22:25;;;;;;;9.93;7.20;;;;;;;16.85;43.14;93571.00;5041333;28;20044;-82
2022/05/01 11:24:50;;;;;;;9.77;8.02;;;;;;;16.86;43.40;93570.50;5067488;28;20033;-82
2022/05/01 11:27:17;;;;;;;9.95;8.20;;;;;;;16.86;43.62;93562.31;5050421;28;20458;-81
2022/05/01 11:30:07;;;;;;;9.90;7.90;;;;;;;16.86;43.33;93570.50;5050706;28;20110;-82
2022/05/01 11:32:46;;;;;;;10.13;8.17;;;;;;;16.86;43.50;93561.56;5068856;28;20327;-82
2022/05/01 11:35:11;;;;;;;9.18;8.25;;;;;;;16.86;43.28;93569.75;5066804;28;20063;-81
2022/05/01 11:38:05;;;;;;;9.38;8.32;;;;;;;16.86;43.49;93570.50;5038526;28;20045;-82
2022/05/01 11:40:31;;;;;;;10.32;8.45;;;;;;;16.88;43.17;93567.28;5030377;28;20032;-81
2022/05/01 11:43:15;;;;;;;10.27;8.07;;;;;;;16.89;43.22;93561.31;5047031;28;20090;-82
2022/05/01 11:45:41;;;;;;;8.93;7.72;;;;;;;16.90;43.64;93565.53;5049034;28;20047;-82
2022/05/01 11:48:14;;;;;;;10.45;8.45;;;;;;;16.87;43.30;93557.59;5065459;28;20646;-83
2022/05/01 11:50:40;;;;;;;10.32;8.48;;;;;;;16.87;43.10;93563.06;5050331;28;20056;-82
2022/05/01 11:53:14;;;;;;;9.23;7.72;;;;;;;16.87;43.68;93571.25;5033639;28;20048;-81